Decoded Metar for CYQV (YORKTON in SK, CANADA) (IATA:YQV) | Meteo·Mobile Aviation Weather
aviador You're here:

CYQV Decoded Metar

YORKTON in SK, CANADA
Report Time2018-10-24 04:00:00
UTC Time2018-10-24 04:48:47
Flight Rules vfr VFR
Wind160° at 10 kt
W.Decomp.*RWY 12: 8.7 kt HW 5.0 kt RCW
RWY 21: 5.0 kt HW 8.7 kt LCW
W.Rank160° ranks 4
Current wind is above 160° avg. (8.4)
Visibility9999 m
Phenomena:N/A
Clouds:Scattered 140 Hf
Expected CloudBase > 2,800 ft AGL from Temp-Dew spread
CeilingNone
Temp02°C (ISA -10)
Dew Point-5°C (60% RH)
AAT-4.2°C
QNH1019 hPa
Density Alt312 ft
Elevation1,634 ft
Report Wrong Elevation
Raw Report
CYQV 240400Z AUTO 16010KT 9SM SCT140 02/M05 A3010 RMK SLP221=

Extra information for CYQV:More info

Metar Taf Metar & Taf Last 4 Metars F.Rules Stats Wind Profile Meteogram Temp Stats Airport Information Weather charts Add Link Nearby VenuesMetar ALERT Operation Metar Decoded Social comments